Time;durP1;ratioP1;P1;durP2;ratioP2;P2;SDS_P1;SDS_P2;PMS_P1;PMS_P2;Temp;Humidity;BMP_temperature;BMP_pressure;BME280_temperature;BME280_humidity;BME280_pressure;Samples;Min_cycle;Max_cycle;Signal;HPM_P1;HPM_P2
2022/11/28 00:02:06;;;;;;;8.48;5.05;;;3.90;99.90;;;;;;5038630;28;19987;-77
2022/11/28 00:05:12;;;;;;;9.48;4.72;;;3.90;99.90;;;;;;5050448;28;20349;-77
2022/11/28 00:08:16;;;;;;;8.57;4.78;;;3.90;99.90;;;;;;5050862;28;20045;-77
2022/11/28 00:11:20;;;;;;;6.68;3.30;;;3.90;99.90;;;;;;5051032;28;20036;-77
2022/11/28 00:14:25;;;;;;;5.05;3.00;;;3.90;99.90;;;;;;5050359;28;20040;-77
2022/11/28 00:17:30;;;;;;;9.63;3.75;;;3.90;99.90;;;;;;5051055;28;20479;-77
2022/11/28 00:20:33;;;;;;;7.15;3.90;;;3.90;99.90;;;;;;5050882;28;20045;-77
2022/11/28 00:27:01;;;;;;;9.00;4.20;;;4.00;99.90;;;;;;5050901;28;20049;-77
2022/11/28 00:30:24;;;;;;;10.13;4.28;;;4.00;99.90;;;;;;5050460;28;20041;-77
2022/11/28 00:33:29;;;;;;;6.18;3.42;;;4.00;99.90;;;;;;5050158;28;20051;-77
2022/11/28 00:36:33;;;;;;;6.85;4.20;;;4.00;99.90;;;;;;5049945;28;20053;-77
2022/11/28 00:39:55;;;;;;;6.03;3.83;;;3.90;99.90;;;;;;5050242;28;20045;-77
2022/11/28 00:42:59;;;;;;;7.60;4.63;;;3.90;99.90;;;;;;5049922;28;20037;-77
2022/11/28 00:46:04;;;;;;;7.72;3.55;;;3.80;99.90;;;;;;5050387;28;20364;-77
2022/11/28 00:49:26;;;;;;;15.13;9.02;;;3.80;99.90;;;;;;5049487;28;20033;-77
2022/11/28 00:52:32;;;;;;;16.77;6.35;;;3.70;99.90;;;;;;5061212;28;20048;-77
2022/11/28 00:55:38;;;;;;;6.00;3.40;;;3.70;99.90;;;;;;5049514;28;20387;-77
2022/11/28 00:59:01;;;;;;;7.72;3.60;;;3.70;99.90;;;;;;5050528;28;20045;-78
2022/11/28 01:02:04;;;;;;;5.05;3.22;;;3.70;99.90;;;;;;5050779;28;20049;-77
2022/11/28 01:05:09;;;;;;;12.77;4.65;;;3.90;99.90;;;;;;5049837;28;20044;-77
2022/11/28 01:08:13;;;;;;;8.35;4.70;;;3.90;99.90;;;;;;5050377;28;20068;-77
2022/11/28 01:11:17;;;;;;;5.93;3.65;;;3.90;99.90;;;;;;5050256;28;20049;-77
2022/11/28 01:14:25;;;;;;;10.93;4.82;;;3.90;99.90;;;;;;5049958;28;20041;-77
2022/11/28 01:17:29;;;;;;;7.75;3.50;;;3.90;99.90;;;;;;5050093;28;20073;-77
2022/11/28 01:20:35;;;;;;;9.95;4.38;;;3.80;99.90;;;;;;5048420;28;20037;-77
2022/11/28 01:27:38;;;;;;;10.45;5.45;;;3.70;99.90;;;;;;5060675;28;20040;-77
2022/11/28 01:30:42;;;;;;;;;;;3.60;99.90;;;;;;5054410;28;20392;-77
2022/11/28 01:33:50;;;;;;;7.00;4.10;;;3.50;99.90;;;;;;5052362;28;19932;-77
2022/11/28 01:37:31;;;;;;;9.00;4.45;;;3.40;99.90;;;;;;5053522;28;20037;-77
2022/11/28 01:40:35;;;;;;;;;;;3.40;99.90;;;;;;5054042;28;20037;-77
2022/11/28 01:44:02;;;;;;;7.72;4.43;;;3.40;99.90;;;;;;5053133;28;20267;-77
2022/11/28 01:47:07;;;;;;;7.25;4.25;;;3.50;99.90;;;;;;5053632;28;20397;-77
2022/11/28 01:50:12;;;;;;;7.32;3.97;;;3.50;99.90;;;;;;5053437;28;20483;-77
2022/11/28 01:53:16;;;;;;;7.50;3.92;;;3.50;99.90;;;;;;5053171;28;20045;-77
2022/11/28 01:56:27;;;;;;;8.65;4.30;;;3.60;99.90;;;;;;5053571;28;20033;-77
2022/11/28 01:59:40;;;;;;;10.88;4.53;;;3.60;99.90;;;;;;5053272;28;20037;-77
2022/11/28 02:02:55;;;;;;;7.78;4.18;;;3.70;99.90;;;;;;5064200;28;20107;-77
2022/11/28 02:06:01;;;;;;;7.65;4.53;;;3.70;99.90;;;;;;5053155;28;20052;-77
2022/11/28 02:09:13;;;;;;;10.73;5.50;;;3.70;99.90;;;;;;5053407;28;20045;-77
2022/11/28 02:12:23;;;;;;;10.68;5.95;;;3.60;99.90;;;;;;5053454;28;20414;-77
2022/11/28 02:15:34;;;;;;;10.25;5.95;;;3.50;99.90;;;;;;5052762;28;20059;-77
2022/11/28 02:18:54;;;;;;;15.30;7.25;;;3.40;99.90;;;;;;5052829;28;20043;-77
2022/11/28 02:22:20;;;;;;;9.60;5.53;;;3.40;99.90;;;;;;5052165;28;20081;-77
2022/11/28 02:26:09;;;;;;;9.82;6.53;;;3.40;99.90;;;;;;5052377;28;20036;-77
2022/11/28 02:29:57;;;;;;;11.77;6.97;;;3.40;99.90;;;;;;5053011;28;20037;-77
2022/11/28 02:33:36;;;;;;;15.52;7.55;;;3.40;99.90;;;;;;5044531;28;20048;-77
2022/11/28 02:37:30;;;;;;;13.15;7.25;;;3.30;99.90;;;;;;5053040;28;20044;-77
2022/11/28 02:40:39;;;;;;;11.98;6.93;;;3.30;99.90;;;;;;5044749;28;20060;-77
2022/11/28 02:44:05;;;;;;;16.55;9.38;;;3.20;99.90;;;;;;5052384;28;20044;-77
2022/11/28 02:47:32;;;;;;;13.82;8.57;;;3.10;99.90;;;;;;5051770;28;20060;-77
2022/11/28 02:50:46;;;;;;;18.30;9.70;;;3.00;99.90;;;;;;5052764;28;20055;-77
2022/11/28 02:53:52;;;;;;;21.48;13.30;;;3.00;99.90;;;;;;5051982;28;20044;-77
2022/11/28 02:56:56;;;;;;;26.30;15.95;;;2.80;99.90;;;;;;5063361;28;20052;-77
2022/11/28 03:00:01;;;;;;;26.40;15.32;;;2.80;99.90;;;;;;5052482;28;20397;-77
2022/11/28 03:03:32;;;;;;;33.67;15.90;;;2.80;99.90;;;;;;5051726;28;20036;-77
2022/11/28 03:06:48;;;;;;;23.13;14.90;;;2.80;99.90;;;;;;5062753;28;20518;-77
2022/11/28 03:10:01;;;;;;;26.52;14.95;;;2.60;99.90;;;;;;5052396;28;20048;-77
2022/11/28 03:13:37;;;;;;;28.88;17.10;;;2.60;99.90;;;;;;5052393;28;20052;-77
2022/11/28 03:17:00;;;;;;;28.77;17.02;;;2.50;99.90;;;;;;5051649;28;20040;-76
2022/11/28 03:20:50;;;;;;;22.80;14.30;;;2.50;99.90;;;;;;5051970;28;20064;-76
2022/11/28 03:24:03;;;;;;;23.75;13.98;;;2.40;99.90;;;;;;5049928;28;20048;-77
2022/11/28 03:27:27;;;;;;;20.85;11.80;;;2.50;99.90;;;;;;5051460;28;20044;-77
2022/11/28 03:30:44;;;;;;;22.83;13.10;;;2.50;99.90;;;;;;5051389;28;20503;-77
2022/11/28 03:33:55;;;;;;;17.00;8.82;;;2.40;99.90;;;;;;5051222;28;20036;-77
2022/11/28 03:37:03;;;;;;;14.55;8.07;;;2.50;99.90;;;;;;5051712;28;20040;-77
2022/11/28 03:40:13;;;;;;;15.80;9.75;;;2.50;99.90;;;;;;5051506;28;20083;-77
2022/11/28 03:43:24;;;;;;;15.88;9.07;;;2.60;99.90;;;;;;5051314;28;20506;-77
2022/11/28 03:46:37;;;;;;;14.43;7.97;;;2.70;99.90;;;;;;5051087;28;20060;-77
2022/11/28 03:49:47;;;;;;;12.57;6.65;;;2.70;99.90;;;;;;5051583;28;20048;-77
2022/11/28 03:52:59;;;;;;;9.13;5.57;;;2.70;99.90;;;;;;5051187;28;20048;-77
2022/11/28 03:56:24;;;;;;;12.30;5.68;;;2.60;99.90;;;;;;5051096;28;20033;-77
2022/11/28 03:59:31;;;;;;;14.57;7.07;;;2.60;99.90;;;;;;5049184;28;20056;-77
2022/11/28 04:02:58;;;;;;;12.90;7.45;;;2.50;99.90;;;;;;5051109;28;20052;-76
2022/11/28 04:06:17;;;;;;;10.98;7.00;;;2.40;99.90;;;;;;5050803;28;20052;-77
2022/11/28 04:13:01;;;;;;;11.80;6.35;;;2.20;99.90;;;;;;5051006;28;20033;-78
2022/11/28 04:16:38;;;;;;;11.45;6.50;;;2.10;99.90;;;;;;5061628;28;20052;-77
2022/11/28 04:19:53;;;;;;;11.90;5.68;;;2.20;99.90;;;;;;5051003;28;20048;-77
2022/11/28 04:23:03;;;;;;;9.90;5.60;;;2.10;99.90;;;;;;5050798;28;20052;-77
2022/11/28 04:26:41;;;;;;;9.68;5.55;;;2.10;99.90;;;;;;5050486;28;20045;-77
2022/11/28 04:29:50;;;;;;;7.32;3.80;;;2.00;99.90;;;;;;5050578;28;20469;-77
2022/11/28 04:33:02;;;;;;;6.57;2.92;;;2.00;99.90;;;;;;5050587;28;20045;-77
2022/11/28 04:36:08;;;;;;;4.20;2.75;;;2.00;99.90;;;;;;5050332;28;20041;-77
2022/11/28 04:39:18;;;;;;;8.05;3.13;;;2.00;99.90;;;;;;5050516;28;20152;-77
2022/11/28 04:42:44;;;;;;;7.05;3.95;;;2.00;99.90;;;;;;5049459;28;20041;-77
2022/11/28 04:45:51;;;;;;;7.30;4.38;;;2.00;99.90;;;;;;5050298;28;20041;-77
2022/11/28 04:48:57;;;;;;;15.73;7.20;;;2.00;99.90;;;;;;5050740;28;20041;-77
2022/11/28 04:52:24;;;;;;;13.07;7.63;;;2.00;99.90;;;;;;5049767;28;20044;-77
2022/11/28 04:55:31;;;;;;;11.75;6.78;;;2.00;99.90;;;;;;5049940;28;20048;-77
2022/11/28 04:58:41;;;;;;;10.32;6.40;;;2.10;99.90;;;;;;5050280;28;20064;-77
2022/11/28 05:01:47;;;;;;;15.40;6.22;;;2.20;99.90;;;;;;5050334;28;20578;-78
2022/11/28 05:04:54;;;;;;;7.85;4.88;;;2.20;99.90;;;;;;5049420;28;20048;-77
2022/11/28 05:07:58;;;;;;;13.60;6.22;;;2.30;99.90;;;;;;5050066;28;20033;-78
2022/11/28 05:11:02;;;;;;;13.90;8.15;;;2.40;99.90;;;;;;5049951;28;20045;-77
2022/11/28 05:14:26;;;;;;;16.00;8.63;;;2.50;99.90;;;;;;5049387;28;20055;-78
2022/11/28 05:17:31;;;;;;;10.82;6.80;;;2.60;99.90;;;;;;5050036;28;20535;-78
2022/11/28 05:20:37;;;;;;;13.02;7.63;;;2.50;99.90;;;;;;5049334;28;20056;-78
2022/11/28 05:23:43;;;;;;;12.48;8.18;;;2.50;99.90;;;;;;5049257;28;20048;-78
2022/11/28 05:26:47;;;;;;;15.63;8.68;;;2.50;99.90;;;;;;5049610;28;20403;-78
2022/11/28 05:29:52;;;;;;;16.77;7.50;;;2.50;99.90;;;;;;5049784;28;20032;-78
2022/11/28 05:32:58;;;;;;;14.55;8.75;;;2.50;99.90;;;;;;5049635;28;20052;-77
2022/11/28 05:36:04;;;;;;;13.27;8.50;;;2.60;99.90;;;;;;5049964;28;20040;-77
2022/11/28 05:39:08;;;;;;;18.35;9.48;;;2.60;99.90;;;;;;5048497;28;20048;-77
2022/11/28 05:42:12;;;;;;;12.07;7.55;;;2.70;99.90;;;;;;5049867;28;20048;-77
2022/11/28 05:45:16;;;;;;;13.85;7.78;;;2.80;99.90;;;;;;5049324;28;20562;-77
2022/11/28 05:48:21;;;;;;;11.77;7.53;;;2.80;99.90;;;;;;5050052;28;20040;-77
2022/11/28 05:51:25;;;;;;;12.10;6.85;;;2.80;99.90;;;;;;5050199;28;20052;-77
2022/11/28 05:54:30;;;;;;;12.77;6.70;;;2.90;99.90;;;;;;5049446;28;20060;-77
2022/11/28 05:57:34;;;;;;;11.20;6.72;;;2.90;99.90;;;;;;5049190;28;20040;-77
2022/11/28 06:00:38;;;;;;;11.07;6.68;;;2.90;99.90;;;;;;5049696;28;20045;-78
2022/11/28 06:10:58;;;;;;;10.48;6.72;;;3.00;99.90;;;;;;5049490;28;20048;-78
2022/11/28 06:14:40;;;;;;;14.73;8.07;;;3.00;99.90;;;;;;5050683;28;20048;-77
2022/11/28 06:18:02;;;;;;;16.33;7.47;;;3.10;99.90;;;;;;5053672;28;20040;-77
2022/11/28 06:21:08;;;;;;;14.05;8.02;;;3.10;99.90;;;;;;5053131;28;20044;-78
2022/11/28 06:24:13;;;;;;;11.68;7.20;;;3.20;99.90;;;;;;5052476;28;20036;-77
2022/11/28 06:27:36;;;;;;;10.75;6.47;;;3.30;99.90;;;;;;5052910;28;20039;-77
2022/11/28 06:30:59;;;;;;;10.02;6.03;;;3.30;99.90;;;;;;5053770;28;20392;-77
2022/11/28 06:34:04;;;;;;;16.40;7.50;;;3.30;99.90;;;;;;5052943;28;20052;-77
2022/11/28 06:37:09;;;;;;;11.57;6.40;;;3.40;99.90;;;;;;5053657;28;20055;-77
2022/11/28 06:40:13;;;;;;;13.05;7.75;;;3.40;99.90;;;;;;5053552;28;20039;-78
2022/11/28 06:43:16;;;;;;;17.90;9.32;;;3.40;99.90;;;;;;5052479;28;20056;-78
2022/11/28 06:46:40;;;;;;;15.27;7.85;;;3.40;99.90;;;;;;5052516;28;20044;-78
2022/11/28 06:49:46;;;;;;;9.32;6.78;;;3.50;99.90;;;;;;5063203;28;20045;-77
2022/11/28 06:52:53;;;;;;;12.65;6.63;;;3.50;99.90;;;;;;5052746;28;20041;-77
2022/11/28 06:56:02;;;;;;;10.48;6.85;;;3.40;99.90;;;;;;5052186;28;20052;-78
2022/11/28 06:59:10;;;;;;;12.38;6.22;;;3.40;99.90;;;;;;5052264;28;20047;-77
2022/11/28 07:02:15;;;;;;;11.20;6.15;;;3.40;99.90;;;;;;5052557;28;20044;-77
2022/11/28 07:05:21;;;;;;;9.15;5.72;;;3.40;99.90;;;;;;5050907;28;20040;-78
2022/11/28 07:08:25;;;;;;;10.55;5.78;;;3.40;99.90;;;;;;5052469;28;20518;-77
2022/11/28 07:11:31;;;;;;;9.68;5.90;;;3.50;99.90;;;;;;5052373;28;20040;-78
2022/11/28 07:14:55;;;;;;;8.38;5.68;;;3.60;99.90;;;;;;5034562;28;20488;-78
2022/11/28 07:18:17;;;;;;;9.63;6.50;;;3.70;99.90;;;;;;5031482;28;20373;-78
2022/11/28 07:21:22;;;;;;;8.65;6.05;;;3.80;99.90;;;;;;5024514;28;20033;-78
2022/11/28 07:24:30;;;;;;;14.30;6.50;;;3.90;99.90;;;;;;5030081;28;20037;-78
2022/11/28 07:27:33;;;;;;;11.75;7.75;;;4.00;99.90;;;;;;5029741;28;20052;-78
2022/11/28 07:30:38;;;;;;;11.75;7.72;;;4.10;99.90;;;;;;5039624;28;20924;-79
2022/11/28 07:33:44;;;;;;;15.02;7.60;;;4.10;99.90;;;;;;5026738;28;20044;-79
2022/11/28 07:37:07;;;;;;;13.30;7.55;;;4.10;99.90;;;;;;5032401;28;20056;-78
2022/11/28 07:40:12;;;;;;;12.13;7.45;;;4.20;99.90;;;;;;5032046;28;20052;-78
2022/11/28 07:43:20;;;;;;;12.70;8.13;;;4.40;99.90;;;;;;5032305;28;20053;-78
2022/11/28 07:46:45;;;;;;;12.55;7.45;;;4.60;99.90;;;;;;5027448;28;20052;-78
2022/11/28 07:50:08;;;;;;;12.48;7.18;;;4.70;99.90;;;;;;5014604;28;20050;-78
2022/11/28 07:53:12;;;;;;;13.65;6.88;;;4.90;99.90;;;;;;5031010;28;20041;-78
2022/11/28 07:59:43;;;;;;;15.07;9.00;;;5.40;99.90;;;;;;5031823;28;20048;-78
2022/11/28 08:02:47;;;;;;;17.70;10.18;;;5.50;99.90;;;;;;5026469;28;20048;-79
2022/11/28 08:05:52;;;;;;;17.48;10.23;;;5.40;99.90;;;;;;5030364;28;20048;-78
2022/11/28 08:09:00;;;;;;;13.85;8.55;;;5.10;99.90;;;;;;5031210;28;20040;-78
2022/11/28 08:12:04;;;;;;;11.85;7.90;;;4.80;99.90;;;;;;5025808;28;20052;-78
2022/11/28 08:15:08;;;;;;;12.52;8.48;;;4.80;99.90;;;;;;5027562;28;20053;-78
2022/11/28 08:18:13;;;;;;;14.90;8.80;;;4.50;99.90;;;;;;5025701;28;20919;-77
2022/11/28 08:21:26;;;;;;;13.02;8.60;;;4.50;99.90;;;;;;5031463;28;20040;-79
2022/11/28 08:24:30;;;;;;;13.57;8.95;;;4.20;99.90;;;;;;5030824;28;20049;-78
2022/11/28 08:27:34;;;;;;;19.83;11.32;;;3.90;99.90;;;;;;5031776;28;20044;-78
2022/11/28 08:31:00;;;;;;;25.55;11.85;;;3.50;99.90;;;;;;5024932;28;20992;-78
2022/11/28 08:37:49;;;;;;;19.60;10.57;;;4.10;99.90;;;;;;5022685;28;20053;-78
2022/11/28 08:41:20;;;;;;;20.02;10.57;;;4.50;99.90;;;;;;5029608;28;20056;-78
2022/11/28 08:44:27;;;;;;;14.82;9.95;;;4.70;99.90;;;;;;5023547;28;20049;-79
2022/11/28 08:47:31;;;;;;;12.82;9.18;;;5.00;99.90;;;;;;5026737;28;20220;-79
2022/11/28 08:50:35;;;;;;;15.02;9.35;;;5.20;99.90;;;;;;5031964;28;20053;-79
2022/11/28 08:53:40;;;;;;;15.20;9.25;;;5.30;99.90;;;;;;5028827;28;20048;-79
2022/11/28 08:57:02;;;;;;;19.77;10.23;;;5.30;99.90;;;;;;5010830;28;20037;-78
2022/11/28 09:00:09;;;;;;;15.00;9.07;;;5.60;99.90;;;;;;5018807;28;20071;-79
2022/11/28 09:03:15;;;;;;;16.42;9.60;;;6.00;99.90;;;;;;5029575;28;20048;-79
2022/11/28 09:10:21;;;;;;;17.20;10.77;;;6.00;99.90;;;;;;5014329;28;20045;-79
2022/11/28 09:13:25;;;;;;;19.90;9.88;;;6.00;99.90;;;;;;5025051;28;20416;-79
2022/11/28 09:16:29;;;;;;;16.33;9.75;;;6.50;99.90;;;;;;5017895;28;20045;-79
2022/11/28 09:19:35;;;;;;;16.65;9.95;;;6.90;99.90;;;;;;5027806;28;20056;-79
2022/11/28 09:22:41;;;;;;;16.00;9.48;;;7.00;99.90;;;;;;5025836;28;20052;-78
2022/11/28 09:25:46;;;;;;;18.23;10.40;;;7.20;99.90;;;;;;5024114;28;20052;-79
2022/11/28 09:28:52;;;;;;;14.63;8.43;;;7.50;99.90;;;;;;5029306;28;20503;-79
2022/11/28 09:31:56;;;;;;;11.38;8.40;;;7.80;99.90;;;;;;5028928;28;20388;-76
2022/11/28 09:35:01;;;;;;;14.73;8.68;;;7.90;99.90;;;;;;5028665;28;20391;-78
2022/11/28 09:38:05;;;;;;;13.20;8.10;;;8.30;99.90;;;;;;5026685;28;20044;-79
2022/11/28 09:41:37;;;;;;;11.50;7.70;;;8.50;99.90;;;;;;5029622;28;20045;-79
2022/11/28 09:44:54;;;;;;;14.63;8.15;;;8.20;99.90;;;;;;5029643;28;20041;-79
2022/11/28 09:48:26;;;;;;;15.43;9.35;;;7.90;99.90;;;;;;5023471;28;20056;-78
2022/11/28 09:52:01;;;;;;;15.27;8.15;;;8.10;99.90;;;;;;5025956;28;20032;-79
2022/11/28 09:55:24;;;;;;;14.30;9.25;;;8.20;99.90;;;;;;5028707;28;20041;-78
2022/11/28 09:59:21;;;;;;;15.93;9.73;;;7.90;99.90;;;;;;5035539;28;20032;-79
2022/11/28 10:02:43;;;;;;;15.60;9.50;;;7.90;99.90;;;;;;5029450;28;20040;-79
2022/11/28 10:09:46;;;;;;;16.77;10.00;;;8.40;99.90;;;;;;5031390;28;19916;-79
2022/11/28 10:13:05;;;;;;;18.13;10.80;;;8.70;99.90;;;;;;5029830;28;20594;-79
2022/11/28 10:16:34;;;;;;;32.72;18.27;;;8.90;99.90;;;;;;5027944;28;20057;-79
2022/11/28 10:19:45;;;;;;;28.75;16.60;;;9.30;99.90;;;;;;5026530;28;20396;-79
2022/11/28 10:22:54;;;;;;;65.97;31.27;;;9.50;99.90;;;;;;5032579;28;20511;-78
2022/11/28 10:26:34;;;;;;;73.82;35.80;;;9.30;99.90;;;;;;5030683;28;20049;-78
2022/11/28 10:30:15;;;;;;;14.68;9.85;;;9.20;99.90;;;;;;5026574;28;20064;-78
2022/11/28 10:37:24;;;;;;;18.13;11.93;;;8.50;99.90;;;;;;5031579;28;20224;-78
2022/11/28 10:40:58;;;;;;;18.77;11.50;;;8.20;99.90;;;;;;5029939;28;20052;-79
2022/11/28 10:44:21;;;;;;;17.52;11.25;;;8.10;99.90;;;;;;5029556;28;20040;-78
2022/11/28 10:47:57;;;;;;;16.63;10.80;;;8.20;99.90;;;;;;5031445;28;20049;-78
2022/11/28 10:51:33;;;;;;;17.33;10.65;;;8.40;99.90;;;;;;5032578;28;20041;-78
2022/11/28 10:54:53;;;;;;;17.83;12.10;;;8.50;99.90;;;;;;5030874;28;20041;-78
2022/11/28 10:58:06;;;;;;;18.38;12.00;;;8.50;99.90;;;;;;5031352;28;20044;-78
2022/11/28 11:01:11;;;;;;;16.88;11.18;;;8.60;99.90;;;;;;5027599;28;20388;-79
2022/11/28 11:04:20;;;;;;;11.18;7.95;;;8.80;99.90;;;;;;5031118;28;20045;-79
2022/11/28 11:07:30;;;;;;;15.95;7.50;;;8.90;99.90;;;;;;5029943;28;20048;-78
2022/11/28 11:10:59;;;;;;;66.90;26.90;;;9.10;99.90;;;;;;5030143;28;20387;-78
2022/11/28 11:14:08;;;;;;;50.22;18.85;;;9.30;99.90;;;;;;5030984;28;20040;-79
2022/11/28 11:17:36;;;;;;;26.65;11.90;;;9.50;99.90;;;;;;5013485;28;20049;-79
2022/11/28 11:20:40;;;;;;;16.40;8.45;;;9.90;99.90;;;;;;5032429;28;20475;-78
2022/11/28 11:23:48;;;;;;;14.55;7.07;;;10.30;99.90;;;;;;5030228;28;20044;-79
2022/11/28 11:26:53;;;;;;;13.75;7.70;;;10.40;99.90;;;;;;5029983;28;20503;-79
2022/11/28 11:30:16;;;;;;;11.48;6.90;;;10.60;99.90;;;;;;5029918;28;20491;-79
2022/11/28 11:33:39;;;;;;;7.18;4.88;;;10.80;99.90;;;;;;5026210;28;20032;-78
2022/11/28 11:36:43;;;;;;;5.55;3.88;;;11.00;99.90;;;;;;5026906;28;20067;-79
2022/11/28 11:39:50;;;;;;;6.32;3.90;;;11.10;99.90;;;;;;5030333;28;20514;-79
2022/11/28 11:42:57;;;;;;;4.80;3.08;;;11.20;99.90;;;;;;5030531;28;20045;-79
2022/11/28 11:46:20;;;;;;;10.57;3.55;;;11.20;99.90;;;;;;5026679;28;20044;-79
2022/11/28 11:49:40;;;;;;;16.65;9.98;;;11.20;99.90;;;;;;5030459;28;20060;-79
2022/11/28 11:53:00;;;;;;;8.52;4.18;;;11.10;99.90;;;;;;5026870;28;20839;-79
2022/11/28 11:56:04;;;;;;;3.42;2.55;;;10.90;99.90;;;;;;5027763;28;20104;-80
2022/11/28 11:59:23;;;;;;;7.03;2.97;;;10.70;99.90;;;;;;5028462;28;20044;-79
2022/11/28 12:02:42;;;;;;;17.05;8.57;;;10.40;99.90;;;;;;5034481;28;20589;-79
2022/11/28 12:05:53;;;;;;;12.23;6.75;;;10.20;99.90;;;;;;5031427;28;20048;-79
2022/11/28 12:09:25;;;;;;;18.13;11.85;;;10.00;99.90;;;;;;5031493;28;20043;-80
2022/11/28 12:12:33;;;;;;;23.08;15.45;;;9.30;99.90;;;;;;5011776;28;20064;-78
2022/11/28 12:16:33;;;;;;;22.35;14.02;;;8.00;99.90;;;;;;5020735;28;20045;-79
2022/11/28 12:20:14;;;;;;;26.23;15.43;;;7.50;99.90;;;;;;5026599;28;20056;-79
2022/11/28 12:23:39;;;;;;;24.05;16.15;;;7.40;99.90;;;;;;5025344;28;20056;-78
2022/11/28 12:26:42;;;;;;;20.83;13.13;;;7.50;99.90;;;;;;5029535;28;20326;-78
2022/11/28 12:30:19;;;;;;;19.33;13.77;;;7.60;99.90;;;;;;5025944;28;20120;-79
2022/11/28 12:34:21;;;;;;;25.52;12.85;;;7.70;99.90;;;;;;5030386;28;20040;-79
2022/11/28 12:37:56;;;;;;;23.35;12.35;;;7.80;99.90;;;;;;5030544;28;20056;-79
2022/11/28 12:41:31;;;;;;;21.65;12.65;;;7.90;99.90;;;;;;5026529;28;20072;-79
2022/11/28 12:44:58;;;;;;;20.67;12.70;;;7.90;99.90;;;;;;5028948;28;20069;-79
2022/11/28 12:48:03;;;;;;;22.17;14.15;;;8.10;99.90;;;;;;5029260;28;20053;-78
2022/11/28 12:51:35;;;;;;;22.40;15.00;;;8.20;99.90;;;;;;5028243;28;20048;-78
2022/11/28 12:54:56;;;;;;;27.33;16.30;;;8.40;99.90;;;;;;5039736;28;20044;-79
2022/11/28 12:58:28;;;;;;;28.92;15.27;;;8.50;99.90;;;;;;5029622;28;20052;-79
2022/11/28 13:01:44;;;;;;;33.42;18.65;;;8.60;99.90;;;;;;5019797;28;20036;-79
2022/11/28 13:05:10;;;;;;;37.35;18.33;;;8.40;99.90;;;;;;5030289;28;20045;-79
2022/11/28 13:08:33;;;;;;;23.27;15.45;;;8.20;99.90;;;;;;5028563;28;20049;-79
2022/11/28 13:11:57;;;;;;;20.65;13.65;;;8.20;99.90;;;;;;5031859;28;20497;-79
2022/11/28 13:15:34;;;;;;;24.27;11.63;;;8.30;99.90;;;;;;5025638;28;20507;-79
2022/11/28 13:22:51;;;;;;;37.92;14.52;;;8.50;99.90;;;;;;5022656;28;20044;-79
2022/11/28 13:25:59;;;;;;;19.75;11.57;;;8.60;99.90;;;;;;5035862;28;20044;-79
2022/11/28 13:29:36;;;;;;;15.82;11.07;;;8.70;99.90;;;;;;5030516;28;20045;-79
2022/11/28 13:33:16;;;;;;;15.77;9.85;;;8.70;99.90;;;;;;5035080;28;20037;-79
2022/11/28 13:36:48;;;;;;;31.58;17.08;;;8.70;99.90;;;;;;5038446;28;20052;-79
2022/11/28 13:40:15;;;;;;;15.27;9.70;;;8.80;99.90;;;;;;5028096;28;20057;-79
2022/11/28 13:43:27;;;;;;;13.25;8.43;;;8.80;99.90;;;;;;5031148;28;20423;-79
2022/11/28 13:46:50;;;;;;;14.13;8.43;;;8.80;99.90;;;;;;5031930;28;20052;-79
2022/11/28 13:50:26;;;;;;;15.20;8.23;;;8.80;99.90;;;;;;5031456;28;20496;-79
2022/11/28 13:53:30;;;;;;;13.18;8.80;;;8.70;99.90;;;;;;5021669;28;20595;-79
2022/11/28 13:57:18;;;;;;;13.73;8.25;;;8.60;99.90;;;;;;5039246;28;20227;-79
2022/11/28 14:00:23;;;;;;;16.15;9.05;;;8.50;99.90;;;;;;5029758;28;20048;-79
2022/11/28 14:04:06;;;;;;;16.17;9.52;;;8.50;99.90;;;;;;5030948;28;20048;-78
2022/11/28 14:07:23;;;;;;;16.58;8.82;;;8.50;99.90;;;;;;5030925;28;20048;-79
2022/11/28 14:10:27;;;;;;;18.60;10.90;;;8.20;99.90;;;;;;5030971;28;20372;-77
2022/11/28 14:13:53;;;;;;;20.17;12.10;;;8.10;99.90;;;;;;5028627;28;21918;-78
2022/11/28 14:17:18;;;;;;;20.30;13.68;;;7.90;99.90;;;;;;5038817;28;20044;-78
2022/11/28 14:20:31;;;;;;;22.63;14.25;;;7.70;99.90;;;;;;5027406;28;20037;-78
2022/11/28 14:24:11;;;;;;;23.63;14.55;;;7.60;99.90;;;;;;5037222;28;20491;-78
2022/11/28 14:27:26;;;;;;;28.95;14.68;;;7.50;99.90;;;;;;5015093;28;20064;-78
2022/11/28 14:30:39;;;;;;;26.52;14.93;;;7.30;99.90;;;;;;5034439;28;20033;-79
2022/11/28 14:33:46;;;;;;;24.88;14.73;;;7.20;99.90;;;;;;5028901;28;20037;-79
2022/11/28 14:37:20;;;;;;;26.38;16.35;;;7.30;99.90;;;;;;5029983;28;20388;-77
2022/11/28 14:40:56;;;;;;;28.30;16.00;;;7.30;99.90;;;;;;5051234;28;20040;-78
2022/11/28 14:44:37;;;;;;;27.80;15.20;;;7.40;99.90;;;;;;5036338;28;20053;-78
2022/11/28 14:48:06;;;;;;;35.22;19.70;;;7.30;99.90;;;;;;5029239;28;20242;-77
2022/11/28 14:51:10;;;;;;;45.63;22.10;;;7.30;99.90;;;;;;5033216;28;20056;-78
2022/11/28 14:54:28;;;;;;;39.95;23.52;;;7.30;99.90;;;;;;5038765;28;20044;-79
2022/11/28 14:57:34;;;;;;;38.40;22.77;;;7.30;99.90;;;;;;5029777;28;20057;-78
2022/11/28 15:00:56;;;;;;;38.20;21.38;;;7.30;99.90;;;;;;5034376;28;20506;-78
2022/11/28 15:04:29;;;;;;;38.90;21.38;;;7.30;99.90;;;;;;5033251;28;20503;-78
2022/11/28 15:07:54;;;;;;;50.70;26.60;;;7.30;99.90;;;;;;5018798;28;20041;-78
2022/11/28 15:11:20;;;;;;;58.30;27.65;;;7.40;99.90;;;;;;5035446;28;20045;-78
2022/11/28 15:14:28;;;;;;;56.63;27.98;;;7.40;99.90;;;;;;5029279;28;20514;-78
2022/11/28 15:17:33;;;;;;;59.60;30.30;;;7.40;99.90;;;;;;5024873;28;20803;-77
2022/11/28 15:21:04;;;;;;;43.70;20.85;;;7.40;99.90;;;;;;5022765;28;20510;-78
2022/11/28 15:24:31;;;;;;;34.17;17.58;;;7.50;99.90;;;;;;5026076;28;20053;-78
2022/11/28 15:27:36;;;;;;;28.95;16.30;;;7.50;99.90;;;;;;5024993;28;20040;-78
2022/11/28 15:31:03;;;;;;;32.20;17.02;;;7.50;99.90;;;;;;5053019;28;20385;-78
2022/11/28 15:34:09;;;;;;;27.52;15.23;;;7.50;99.90;;;;;;5039687;28;20044;-78
2022/11/28 15:37:16;;;;;;;19.17;10.52;;;7.40;99.90;;;;;;5046061;28;20427;-78
2022/11/28 15:40:30;;;;;;;48.58;24.83;;;7.40;99.90;;;;;;5031655;28;20514;-78
2022/11/28 15:43:42;;;;;;;54.42;26.13;;;7.20;99.90;;;;;;5045067;28;20044;-79
2022/11/28 15:46:46;;;;;;;51.13;26.45;;;6.90;99.90;;;;;;5029928;28;20514;-78
2022/11/28 15:50:12;;;;;;;46.95;23.83;;;6.70;99.90;;;;;;5028200;28;20048;-78
2022/11/28 15:53:19;;;;;;;54.63;26.70;;;6.70;99.90;;;;;;5043475;28;20052;-78
2022/11/28 15:56:25;;;;;;;46.08;23.92;;;6.70;99.90;;;;;;5025603;28;20060;-78
2022/11/28 15:59:30;;;;;;;44.95;22.98;;;6.70;99.90;;;;;;5032598;28;20044;-78
2022/11/28 16:02:37;;;;;;;50.08;24.58;;;6.70;99.90;;;;;;5031647;28;20407;-78
2022/11/28 16:05:42;;;;;;;49.17;24.23;;;6.80;99.90;;;;;;5019930;28;20048;-78
2022/11/28 16:09:11;;;;;;;49.50;26.42;;;6.80;99.90;;;;;;5036605;28;20056;-78
2022/11/28 16:12:15;;;;;;;41.30;21.40;;;6.80;99.90;;;;;;5041437;28;20104;-78
2022/11/28 16:15:21;;;;;;;63.53;32.80;;;6.90;99.90;;;;;;5048610;28;20044;-78
2022/11/28 16:18:27;;;;;;;42.47;20.38;;;6.90;99.90;;;;;;5030315;28;20052;-78
2022/11/28 16:21:42;;;;;;;223.27;96.25;;;6.90;99.90;;;;;;5024298;28;20056;-78
2022/11/28 16:24:54;;;;;;;24.30;13.95;;;6.90;99.90;;;;;;5027624;28;20048;-78
2022/11/28 16:28:36;;;;;;;57.88;32.60;;;6.90;99.90;;;;;;5022477;28;20040;-78
2022/11/28 16:31:42;;;;;;;31.33;17.60;;;6.90;99.90;;;;;;5033594;28;20035;-78
2022/11/28 16:34:49;;;;;;;28.45;16.15;;;6.90;99.90;;;;;;5035780;28;20387;-78
2022/11/28 16:42:06;;;;;;;23.05;15.23;;;6.90;99.90;;;;;;5036737;28;20045;-78
2022/11/28 16:45:17;;;;;;;51.47;24.42;;;6.90;99.90;;;;;;5047974;28;20044;-78
2022/11/28 16:48:47;;;;;;;193.68;73.55;;;7.00;99.90;;;;;;5038674;28;20040;-78
2022/11/28 16:52:20;;;;;;;208.73;78.55;;;6.90;99.90;;;;;;5039432;28;20052;-78
2022/11/28 16:55:43;;;;;;;142.98;55.42;;;7.00;99.90;;;;;;5037962;28;20051;-78
2022/11/28 16:58:47;;;;;;;94.60;39.97;;;7.00;99.90;;;;;;5032048;28;20207;-77
2022/11/28 17:01:53;;;;;;;142.55;54.63;;;6.90;99.90;;;;;;5035710;28;20400;-78
2022/11/28 17:04:57;;;;;;;179.90;67.03;;;6.90;99.90;;;;;;5033524;28;20040;-78
2022/11/28 17:08:00;;;;;;;163.18;69.88;;;6.90;99.90;;;;;;5017083;28;20044;-77
2022/11/28 17:14:47;;;;;;;111.13;46.58;;;6.90;99.90;;;;;;5031962;28;20063;-78
2022/11/28 17:17:54;;;;;;;103.75;41.88;;;7.00;99.90;;;;;;5036120;28;20048;-78
2022/11/28 17:20:58;;;;;;;115.10;48.25;;;7.10;99.90;;;;;;5030970;28;20404;-78
2022/11/28 17:24:06;;;;;;;91.72;40.13;;;7.10;99.90;;;;;;5029944;28;20053;-78
2022/11/28 17:27:14;;;;;;;79.15;33.95;;;7.10;99.90;;;;;;5029897;28;20048;-78
2022/11/28 17:30:20;;;;;;;60.83;27.77;;;7.10;99.90;;;;;;5030037;28;20044;-78
2022/11/28 17:40:35;;;;;;;33.55;18.48;;;7.20;99.90;;;;;;5029025;28;20052;-78
2022/11/28 17:43:40;;;;;;;40.70;22.95;;;7.30;99.90;;;;;;5029635;28;20068;-78
2022/11/28 17:46:45;;;;;;;67.57;33.20;;;7.40;99.90;;;;;;5030262;28;20048;-78